createdAt,value
2019-02-14T00:02:22.826Z,77.85
2019-02-14T00:05:16.586Z,77.47
2019-02-14T00:08:03.410Z,77.16
2019-02-14T00:10:53.034Z,77.93
2019-02-14T00:13:42.857Z,77.86
2019-02-14T00:16:32.285Z,77.65
2019-02-14T00:19:22.335Z,78.40
2019-02-14T00:22:11.753Z,78.75
2019-02-14T00:25:01.750Z,78.82
2019-02-14T00:27:51.181Z,79.09
2019-02-14T00:30:40.465Z,78.49
2019-02-14T00:33:29.836Z,78.82
2019-02-14T00:36:19.012Z,78.83
2019-02-14T00:39:08.463Z,78.10
2019-02-14T00:41:58.327Z,78.06
2019-02-14T00:44:47.812Z,79.61
2019-02-14T00:47:37.468Z,79.34
2019-02-14T00:50:26.914Z,80.29
2019-02-14T00:53:18.838Z,79.86
2019-02-14T00:56:08.387Z,80.08
2019-02-14T00:58:58.607Z,79.40
2019-02-14T01:01:48.560Z,80.61
2019-02-14T01:04:38.453Z,81.01
2019-02-14T01:07:27.949Z,80.91
2019-02-14T01:10:18.268Z,80.13
2019-02-14T01:13:07.551Z,81.13
2019-02-14T01:15:57.679Z,80.44
2019-02-14T01:18:46.996Z,80.97
2019-02-14T01:21:36.130Z,80.25
2019-02-14T01:24:25.519Z,79.96
2019-02-14T01:27:15.192Z,80.59
2019-02-14T01:30:05.066Z,80.76
2019-02-14T01:32:55.161Z,81.11
2019-02-14T01:35:44.950Z,81.15
2019-02-14T01:38:34.038Z,80.23
2019-02-14T01:41:24.165Z,80.07
2019-02-14T01:44:13.360Z,79.38
2019-02-14T01:47:02.642Z,79.34
2019-02-14T01:49:52.582Z,79.36
2019-02-14T01:56:13.684Z,78.76
2019-02-14T01:59:03.114Z,78.97
2019-02-14T02:01:53.102Z,78.39
2019-02-14T02:04:42.608Z,79.16
2019-02-14T02:07:32.636Z,79.11
2019-02-14T02:10:22.277Z,79.25
2019-02-14T02:13:14.839Z,79.11
2019-02-14T02:16:04.006Z,78.97
2019-02-14T02:18:53.644Z,79.51
2019-02-14T02:21:43.174Z,80.73
2019-02-14T02:24:32.875Z,80.61
2019-02-14T02:27:22.328Z,79.11
2019-02-14T02:30:13.560Z,79.01
2019-02-14T02:33:03.165Z,79.00
2019-02-14T02:36:00.158Z,79.12
2019-02-14T02:38:44.057Z,79.09
2019-02-14T02:41:33.715Z,79.57
2019-02-14T02:44:22.816Z,79.25
2019-02-14T02:47:16.056Z,79.16
2019-02-14T02:50:06.457Z,79.43
2019-02-14T02:52:55.670Z,79.62
2019-02-14T02:55:45.144Z,80.16
2019-02-14T02:58:35.083Z,79.96
2019-02-14T03:01:24.425Z,79.84
2019-02-14T03:04:13.799Z,79.70
2019-02-14T03:07:02.936Z,79.72
2019-02-14T03:09:52.576Z,79.69
2019-02-14T03:12:42.012Z,79.83
2019-02-14T03:15:31.707Z,79.90
2019-02-14T03:18:21.115Z,80.12
2019-02-14T03:21:14.672Z,80.19
2019-02-14T03:24:04.678Z,80.55
2019-02-14T03:26:54.674Z,80.95
2019-02-14T03:29:44.069Z,80.77
2019-02-14T03:32:35.231Z,80.61
2019-02-14T03:35:24.778Z,80.48
2019-02-14T03:38:14.530Z,80.55
2019-02-14T03:41:03.854Z,80.21
2019-02-14T03:43:53.451Z,80.36
2019-02-14T03:46:42.723Z,79.91
2019-02-14T03:49:32.378Z,78.94
2019-02-14T03:52:21.600Z,79.12
2019-02-14T03:55:13.282Z,78.44
2019-02-14T03:58:02.863Z,78.47
2019-02-14T04:00:52.513Z,78.77
2019-02-14T04:03:41.786Z,79.37
2019-02-14T04:06:31.330Z,80.29
2019-02-14T04:09:20.803Z,80.62
2019-02-14T04:12:10.690Z,79.80
2019-02-14T04:14:59.879Z,79.71
2019-02-14T04:17:49.366Z,79.84
2019-02-14T04:20:39.318Z,79.40
2019-02-14T04:23:28.593Z,79.22
2019-02-14T04:26:18.096Z,78.51
2019-02-14T04:29:07.785Z,78.95
2019-02-14T04:31:57.467Z,79.13
2019-02-14T04:34:46.998Z,78.84
2019-02-14T04:37:36.712Z,78.06
2019-02-14T04:40:33.451Z,78.04
2019-02-14T04:43:17.289Z,78.59
2019-02-14T04:46:06.641Z,78.93
2019-02-14T04:48:55.982Z,78.34
2019-02-14T04:51:45.244Z,78.64
2019-02-14T04:54:34.844Z,78.75
2019-02-14T04:57:24.209Z,78.59
2019-02-14T05:00:14.106Z,79.08
2019-02-14T05:03:03.447Z,79.05
2019-02-14T05:05:52.951Z,79.31
2019-02-14T05:08:42.067Z,79.33
2019-02-14T05:11:32.125Z,79.30
2019-02-14T05:14:21.574Z,78.81
2019-02-14T05:17:16.301Z,78.76
2019-02-14T05:20:06.878Z,78.70
2019-02-14T05:22:56.681Z,77.87
2019-02-14T05:25:46.534Z,77.40
2019-02-14T05:28:36.120Z,77.27
2019-02-14T05:31:25.994Z,77.85
2019-02-14T05:34:15.297Z,77.88
2019-02-14T05:37:04.678Z,77.93
2019-02-14T05:39:54.566Z,78.08
2019-02-14T05:42:44.129Z,78.21
2019-02-14T05:45:34.149Z,78.42
2019-02-14T05:48:23.975Z,78.17
2019-02-14T05:51:14.914Z,78.53
2019-02-14T05:54:05.152Z,78.74
2019-02-14T05:56:54.536Z,78.81
2019-02-14T05:59:44.210Z,78.95
2019-02-14T06:02:33.659Z,79.25
2019-02-14T06:05:23.698Z,78.28
2019-02-14T06:08:13.377Z,78.76
2019-02-14T06:11:02.674Z,78.89
2019-02-14T06:13:52.769Z,79.05
2019-02-14T06:16:42.016Z,79.80
2019-02-14T06:19:31.962Z,80.46
2019-02-14T06:22:21.145Z,80.61
2019-02-14T06:25:14.594Z,80.46
2019-02-14T06:28:03.927Z,81.00
2019-02-14T06:30:53.083Z,80.57
2019-02-14T06:33:44.349Z,80.51
2019-02-14T06:36:33.926Z,80.18
2019-02-14T06:39:23.750Z,80.13
2019-02-14T06:42:13.533Z,79.78
2019-02-14T06:45:03.009Z,79.83
2019-02-14T06:47:52.691Z,79.08
2019-02-14T06:50:42.086Z,78.91
2019-02-14T06:53:32.041Z,79.26
2019-02-14T06:56:21.317Z,79.51
2019-02-14T06:59:11.280Z,79.33
2019-02-14T07:02:01.470Z,79.29
2019-02-14T07:04:51.208Z,78.55
2019-02-14T07:07:40.508Z,79.02
2019-02-14T07:10:30.463Z,78.87
2019-02-14T07:13:20.044Z,78.97
2019-02-14T07:16:09.850Z,78.83
2019-02-14T07:19:01.952Z,78.52
2019-02-14T07:21:51.695Z,79.16
2019-02-14T07:24:41.257Z,78.66
2019-02-14T07:27:31.002Z,78.69
2019-02-14T07:30:20.923Z,78.95
2019-02-14T07:33:16.008Z,78.45
2019-02-14T07:36:05.476Z,79.01
2019-02-14T07:38:54.906Z,78.66
2019-02-14T07:41:44.937Z,78.58
2019-02-14T07:44:34.394Z,78.32
2019-02-14T07:47:24.073Z,77.55
2019-02-14T07:50:13.457Z,77.39
2019-02-14T07:53:03.370Z,78.05
2019-02-14T07:55:53.878Z,77.49
2019-02-14T07:58:43.577Z,77.05
2019-02-14T08:01:32.855Z,76.69
2019-02-14T08:04:22.095Z,76.88
2019-02-14T08:07:16.434Z,76.35
2019-02-14T08:10:06.463Z,76.05
2019-02-14T08:12:56.430Z,76.11
2019-02-14T08:15:45.987Z,74.68
2019-02-14T08:18:35.911Z,74.83
2019-02-14T08:21:25.370Z,75.20
2019-02-14T08:24:15.037Z,75.23
2019-02-14T08:27:04.584Z,74.93
2019-02-14T08:29:53.967Z,75.70
2019-02-14T08:32:43.401Z,75.39
2019-02-14T08:35:32.715Z,74.77
2019-02-14T08:38:22.875Z,74.99
2019-02-14T08:41:12.242Z,75.04
2019-02-14T08:44:03.378Z,74.92
2019-02-14T08:46:52.451Z,74.05
2019-02-14T08:49:42.102Z,74.58
2019-02-14T08:52:31.580Z,74.49
2019-02-14T08:55:21.342Z,74.81
2019-02-14T08:58:10.753Z,73.83
2019-02-14T09:01:00.926Z,74.52
2019-02-14T09:03:50.238Z,74.04
2019-02-14T09:06:39.194Z,73.92
2019-02-14T09:09:28.662Z,73.82
2019-02-14T09:12:18.705Z,73.26
2019-02-14T09:15:11.964Z,71.91
2019-02-14T09:18:01.420Z,71.24
2019-02-14T09:20:50.956Z,71.16
2019-02-14T09:23:42.400Z,71.96
2019-02-14T09:26:31.723Z,71.93
2019-02-14T09:29:21.394Z,69.40
2019-02-14T09:32:10.911Z,68.58
2019-02-14T09:35:00.301Z,68.73
2019-02-14T09:37:49.847Z,68.96
2019-02-14T09:40:39.290Z,67.91
2019-02-14T09:43:30.078Z,67.97
2019-02-14T09:46:19.706Z,67.78
2019-02-14T09:49:11.006Z,67.06
2019-02-14T09:52:00.347Z,68.62
2019-02-14T09:54:50.274Z,68.84
2019-02-14T09:57:39.693Z,68.40
2019-02-14T10:00:29.561Z,68.58
2019-02-14T10:03:19.108Z,69.15
2019-02-14T10:06:09.316Z,68.36
2019-02-14T10:09:01.632Z,68.58
2019-02-14T10:11:51.963Z,67.77
2019-02-14T10:14:52.255Z,68.63
2019-02-14T10:17:42.143Z,67.73
2019-02-14T10:20:31.671Z,68.97
2019-02-14T10:23:21.254Z,67.88
2019-02-14T10:26:10.566Z,68.02
2019-02-14T10:29:02.815Z,66.88
2019-02-14T10:31:52.048Z,66.41
2019-02-14T10:34:41.683Z,67.19
2019-02-14T10:37:30.892Z,66.51
2019-02-14T10:40:20.861Z,66.14
2019-02-14T10:43:10.405Z,66.68
2019-02-14T10:46:00.406Z,66.71
2019-02-14T10:48:50.109Z,64.46
2019-02-14T10:51:39.987Z,65.75
2019-02-14T10:54:29.207Z,64.60
2019-02-14T10:57:18.789Z,64.81
2019-02-14T11:00:16.345Z,65.55
2019-02-14T11:03:06.823Z,65.42
2019-02-14T11:05:55.997Z,64.84
2019-02-14T11:08:45.514Z,64.83
2019-02-14T11:11:35.185Z,65.50
2019-02-14T11:14:29.121Z,66.12
2019-02-14T11:17:15.615Z,65.21
2019-02-14T11:20:06.612Z,64.06
2019-02-14T11:22:56.231Z,63.75
2019-02-14T11:25:45.609Z,63.27
2019-02-14T11:28:35.105Z,62.91
2019-02-14T11:31:25.019Z,62.10
2019-02-14T11:34:14.502Z,59.67
2019-02-14T11:37:03.876Z,61.52
2019-02-14T11:39:53.574Z,59.16
2019-02-14T11:42:43.178Z,59.03
2019-02-14T11:45:32.616Z,58.24
2019-02-14T11:48:21.614Z,58.44
2019-02-14T11:51:11.308Z,59.17
2019-02-14T11:54:03.259Z,60.10
2019-02-14T11:56:52.748Z,58.50
2019-02-14T11:59:42.187Z,56.36
2019-02-14T12:02:31.799Z,53.18
2019-02-14T12:05:21.983Z,52.25
2019-02-14T12:08:11.228Z,52.88
2019-02-14T12:11:01.170Z,49.81
2019-02-14T12:13:50.799Z,52.29
2019-02-14T12:16:40.463Z,51.61
2019-02-14T12:19:29.903Z,50.64
2019-02-14T12:22:19.856Z,47.99
2019-02-14T12:28:46.057Z,47.46
2019-02-14T12:31:35.198Z,47.92
2019-02-14T12:34:24.454Z,49.19
2019-02-14T12:37:16.065Z,51.32
2019-02-14T12:40:06.637Z,53.00
2019-02-14T12:42:56.372Z,53.84
2019-02-14T12:45:46.132Z,52.27
2019-02-14T12:48:35.266Z,52.02
2019-02-14T12:51:24.889Z,52.46
2019-02-14T12:54:14.356Z,50.14
2019-02-14T12:57:03.965Z,49.05
2019-02-14T12:59:53.184Z,48.31
2019-02-14T13:02:43.373Z,48.06
2019-02-14T13:05:33.658Z,49.81
2019-02-14T13:08:22.983Z,49.54
2019-02-14T13:11:12.471Z,50.86
2019-02-14T13:14:04.713Z,51.06
2019-02-14T13:16:54.131Z,50.06
2019-02-14T13:19:43.317Z,48.34
2019-02-14T13:22:32.537Z,50.32
2019-02-14T13:25:21.777Z,49.75
2019-02-14T13:28:11.463Z,49.18
2019-02-14T13:31:00.734Z,49.96
2019-02-14T13:33:50.741Z,49.83
2019-02-14T13:36:40.212Z,50.24
2019-02-14T13:39:32.382Z,49.99
2019-02-14T13:42:21.038Z,48.52
2019-02-14T13:45:12.767Z,48.83
2019-02-14T13:48:02.228Z,47.96
2019-02-14T13:50:51.965Z,47.14
2019-02-14T13:53:41.494Z,47.13
2019-02-14T13:56:30.728Z,47.00
2019-02-14T13:59:20.256Z,49.09
2019-02-14T14:02:09.651Z,48.19
2019-02-14T14:04:59.333Z,48.58
2019-02-14T14:07:48.954Z,49.26
2019-02-14T14:10:38.951Z,48.10
2019-02-14T14:13:28.435Z,47.80
2019-02-14T14:16:18.046Z,49.43
2019-02-14T14:19:07.950Z,46.86
2019-02-14T14:21:57.094Z,48.85
2019-02-14T14:24:46.635Z,47.15
2019-02-14T14:27:36.141Z,45.53
2019-02-14T14:30:25.735Z,45.12
2019-02-14T14:33:15.413Z,44.33
2019-02-14T14:36:04.622Z,42.60
2019-02-14T14:38:54.302Z,42.19
2019-02-14T14:41:43.856Z,42.46
2019-02-14T14:44:58.996Z,40.44
2019-02-14T14:47:48.485Z,38.69
2019-02-14T14:50:37.939Z,37.32
2019-02-14T14:53:27.084Z,37.40
2019-02-14T14:56:16.679Z,37.17
2019-02-14T14:59:06.089Z,40.04
2019-02-14T15:01:56.224Z,37.97
2019-02-14T15:04:45.475Z,40.70
2019-02-14T15:07:35.841Z,40.28
2019-02-14T15:10:25.076Z,39.48
2019-02-14T15:13:15.039Z,37.72
2019-02-14T15:16:04.235Z,36.33
2019-02-14T15:18:54.447Z,38.32
2019-02-14T15:21:43.795Z,38.13
2019-02-14T15:24:33.228Z,39.63
2019-02-14T15:27:22.460Z,42.54
2019-02-14T15:30:12.440Z,40.34
2019-02-14T15:33:02.063Z,38.67
2019-02-14T15:35:51.994Z,39.89
2019-02-14T15:38:41.417Z,42.50
2019-02-14T15:41:30.999Z,43.66
2019-02-14T15:44:20.184Z,46.40
2019-02-14T15:47:10.496Z,51.02
2019-02-14T15:50:00.004Z,52.55
2019-02-14T15:52:52.219Z,54.09
2019-02-14T15:55:43.590Z,54.97
2019-02-14T15:58:33.108Z,54.84
2019-02-14T16:01:22.570Z,55.50
2019-02-14T16:04:12.013Z,56.47
2019-02-14T16:07:02.213Z,57.09
2019-02-14T16:09:52.164Z,59.61
2019-02-14T16:12:43.555Z,59.78
2019-02-14T16:15:33.806Z,60.07
2019-02-14T16:18:23.571Z,60.58
2019-02-14T16:21:20.357Z,59.84
2019-02-14T16:24:09.742Z,61.74
2019-02-14T16:27:01.171Z,62.11
2019-02-14T16:29:50.949Z,62.03
2019-02-14T16:32:41.198Z,61.84
2019-02-14T16:35:30.447Z,63.51
2019-02-14T16:38:20.720Z,63.08
2019-02-14T16:41:10.552Z,63.72
2019-02-14T16:44:02.142Z,64.84
2019-02-14T16:46:51.615Z,65.39
2019-02-14T16:49:41.352Z,65.66
2019-02-14T16:52:30.490Z,65.43
2019-02-14T16:55:20.345Z,65.11
2019-02-14T16:58:10.225Z,66.19
2019-02-14T17:00:59.865Z,67.07
2019-02-14T17:03:49.426Z,65.58
2019-02-14T17:06:39.725Z,66.18
2019-02-14T17:09:28.942Z,67.81
2019-02-14T17:12:18.413Z,67.65
2019-02-14T17:15:08.969Z,68.33
2019-02-14T17:17:58.169Z,68.10
2019-02-14T17:20:47.613Z,66.67
2019-02-14T17:23:37.396Z,66.11
2019-02-14T17:26:27.429Z,67.91
2019-02-14T17:29:17.064Z,68.08
2019-02-14T17:32:06.249Z,67.53
2019-02-14T17:34:55.897Z,66.58
2019-02-14T17:37:45.058Z,67.49
2019-02-14T17:40:34.402Z,68.17
2019-02-14T17:43:24.323Z,68.71
2019-02-14T17:46:14.206Z,68.44
2019-02-14T17:49:03.891Z,68.06
2019-02-14T17:51:53.146Z,68.42
2019-02-14T17:54:42.753Z,68.37
2019-02-14T17:57:31.957Z,69.67
2019-02-14T18:00:21.336Z,69.83
2019-02-14T18:03:11.962Z,69.43
2019-02-14T18:06:01.468Z,69.79
2019-02-14T18:08:50.652Z,70.38
2019-02-14T18:11:40.501Z,69.99
2019-02-14T18:14:29.728Z,69.92
2019-02-14T18:17:19.413Z,70.01
2019-02-14T18:20:10.052Z,70.01
2019-02-14T18:22:59.583Z,69.59
2019-02-14T18:25:48.845Z,69.89
2019-02-14T18:28:38.031Z,70.03
2019-02-14T18:31:28.011Z,70.36
2019-02-14T18:34:17.580Z,69.07
2019-02-14T18:37:07.352Z,70.39
2019-02-14T18:39:56.860Z,70.48
2019-02-14T18:42:46.757Z,70.30
2019-02-14T18:45:36.213Z,69.93
2019-02-14T18:48:26.099Z,69.77
2019-02-14T18:51:15.561Z,69.70
2019-02-14T18:54:04.922Z,70.64
2019-02-14T18:56:54.143Z,70.36
2019-02-14T18:59:43.945Z,70.20
2019-02-14T19:02:33.382Z,70.77
2019-02-14T19:05:23.555Z,71.17
2019-02-14T19:08:13.139Z,71.35
2019-02-14T19:11:03.467Z,71.29
2019-02-14T19:13:54.311Z,72.02
2019-02-14T19:16:44.495Z,72.05
2019-02-14T19:19:34.122Z,72.37
2019-02-14T19:22:23.530Z,71.87
2019-02-14T19:25:14.429Z,71.95
2019-02-14T19:28:03.847Z,71.75
2019-02-14T19:30:53.492Z,71.69
2019-02-14T19:33:43.077Z,72.65
2019-02-14T19:36:32.633Z,73.44
2019-02-14T19:39:22.597Z,73.17
2019-02-14T19:42:12.176Z,73.49
2019-02-14T19:45:02.026Z,73.45
2019-02-14T19:47:52.287Z,72.86
2019-02-14T19:50:41.649Z,73.04
2019-02-14T19:53:31.109Z,73.00
2019-02-14T19:56:20.740Z,73.15
2019-02-14T19:59:09.961Z,72.94
2019-02-14T20:01:59.320Z,72.86
2019-02-14T20:04:49.071Z,72.92
2019-02-14T20:07:38.892Z,73.93
2019-02-14T20:10:28.051Z,73.58
2019-02-14T20:13:17.867Z,74.13
2019-02-14T20:16:07.059Z,74.56
2019-02-14T20:18:57.095Z,74.29
2019-02-14T20:28:34.689Z,74.76
2019-02-14T20:31:24.660Z,74.50
2019-02-14T20:34:14.090Z,74.52
2019-02-14T20:37:03.804Z,74.88
2019-02-14T20:39:53.236Z,74.98
2019-02-14T20:43:20.292Z,75.00
2019-02-14T20:46:10.258Z,75.14
2019-02-14T20:49:00.420Z,74.89
2019-02-14T20:51:49.564Z,74.67
2019-02-14T20:54:39.121Z,75.25
2019-02-14T20:57:28.297Z,75.12
2019-02-14T21:00:32.929Z,74.88
2019-02-14T21:03:22.210Z,75.57
2019-02-14T21:06:11.549Z,75.24
2019-02-14T21:09:05.036Z,75.00
2019-02-14T21:11:55.133Z,75.29
2019-02-14T21:14:45.089Z,75.13
2019-02-14T21:17:34.496Z,75.32
2019-02-14T21:20:23.749Z,75.26
2019-02-14T21:23:16.153Z,74.06
2019-02-14T21:26:05.893Z,74.78
2019-02-14T21:28:55.283Z,75.15
2019-02-14T21:31:45.514Z,76.27
2019-02-14T21:34:34.783Z,76.33
2019-02-14T21:37:24.546Z,75.92
2019-02-14T21:40:14.104Z,75.23
2019-02-14T21:43:03.841Z,75.71
2019-02-14T21:45:53.789Z,75.31
2019-02-14T21:48:43.126Z,74.89
2019-02-14T21:51:33.004Z,74.92
2019-02-14T21:54:22.804Z,74.92
2019-02-14T21:57:13.767Z,74.62
2019-02-14T22:00:03.785Z,74.93
2019-02-14T22:02:53.172Z,74.60
2019-02-14T22:05:42.608Z,73.59
2019-02-14T22:08:32.015Z,75.05
2019-02-14T22:11:22.104Z,75.53
2019-02-14T22:14:11.488Z,74.95
2019-02-14T22:17:01.153Z,75.08
2019-02-14T22:19:50.331Z,74.91
2019-02-14T22:22:39.760Z,75.15
2019-02-14T22:25:29.330Z,74.95
2019-02-14T22:28:18.890Z,74.79
2019-02-14T22:31:08.603Z,74.49
2019-02-14T22:33:58.203Z,74.41
2019-02-14T22:36:47.591Z,73.78
2019-02-14T22:39:37.189Z,74.58
2019-02-14T22:42:26.721Z,74.60
2019-02-14T22:45:16.932Z,74.58
2019-02-14T22:48:06.651Z,73.72
2019-02-14T22:51:23.032Z,74.31
2019-02-14T22:54:12.706Z,74.64
2019-02-14T22:57:02.037Z,74.35
2019-02-14T22:59:51.225Z,76.32
2019-02-14T23:02:42.848Z,75.92
2019-02-14T23:05:32.817Z,76.41
2019-02-14T23:08:22.364Z,76.19
2019-02-14T23:11:12.293Z,76.49
2019-02-14T23:14:01.924Z,76.58
2019-02-14T23:16:51.223Z,75.85
2019-02-14T23:19:41.195Z,77.76
2019-02-14T23:22:30.764Z,77.59
2019-02-14T23:25:20.142Z,77.51
2019-02-14T23:28:09.913Z,77.37
2019-02-14T23:30:59.315Z,77.96
2019-02-14T23:33:48.902Z,78.22
2019-02-14T23:36:38.587Z,78.72
2019-02-14T23:39:27.774Z,78.70
2019-02-14T23:42:17.248Z,78.75
2019-02-14T23:45:07.783Z,79.04
2019-02-14T23:47:57.008Z,80.70
2019-02-14T23:50:46.894Z,80.44
2019-02-14T23:53:36.396Z,80.17
2019-02-14T23:56:26.301Z,79.22
2019-02-14T23:59:15.517Z,78.92
